createdAt,value
2022-09-17T00:01:39.584Z,12.20
2022-09-17T00:04:07.832Z,12.20
2022-09-17T00:06:37.975Z,12.20
2022-09-17T00:09:07.580Z,12.20
2022-09-17T00:11:39.836Z,12.20
2022-09-17T00:14:13.337Z,12.20
2022-09-17T00:16:42.909Z,12.20
2022-09-17T00:19:15.921Z,12.10
2022-09-17T00:21:44.831Z,12.20
2022-09-17T00:24:14.486Z,12.20
2022-09-17T00:26:43.265Z,12.10
2022-09-17T00:29:13.027Z,12.10
2022-09-17T00:31:41.688Z,12.10
2022-09-17T00:34:10.349Z,12.10
2022-09-17T00:36:39.919Z,12.10
2022-09-17T00:39:09.905Z,12.10
2022-09-17T00:41:39.488Z,12.10
2022-09-17T00:44:49.094Z,12.10
2022-09-17T00:47:21.989Z,12.10
2022-09-17T00:49:52.548Z,12.10
2022-09-17T00:52:24.820Z,12.00
2022-09-17T00:54:57.514Z,12.00
2022-09-17T00:57:26.060Z,12.00
2022-09-17T00:59:55.748Z,12.00
2022-09-17T01:02:26.505Z,12.00
2022-09-17T01:04:56.170Z,12.00
2022-09-17T01:07:44.488Z,12.00
2022-09-17T01:10:24.201Z,12.00
2022-09-17T01:13:07.410Z,12.00
2022-09-17T01:15:48.692Z,12.00
2022-09-17T01:18:28.541Z,12.00
2022-09-17T01:21:33.583Z,12.00
2022-09-17T01:24:26.132Z,12.00
2022-09-17T01:27:25.262Z,11.90
2022-09-17T01:30:26.345Z,11.90
2022-09-17T01:33:01.779Z,11.90
2022-09-17T01:35:38.176Z,11.90
2022-09-17T01:38:11.930Z,11.90
2022-09-17T01:40:48.066Z,11.80
2022-09-17T01:43:22.554Z,11.80
2022-09-17T01:45:52.649Z,11.80
2022-09-17T01:48:27.537Z,11.80
2022-09-17T01:50:59.886Z,11.80
2022-09-17T01:53:38.679Z,11.80
2022-09-17T01:56:10.230Z,11.80
2022-09-17T01:58:42.915Z,11.80
2022-09-17T02:01:13.895Z,11.80
2022-09-17T02:03:49.406Z,11.80
2022-09-17T02:06:22.137Z,11.80
2022-09-17T02:08:54.919Z,11.80
2022-09-17T02:11:23.721Z,11.70
2022-09-17T02:13:58.581Z,11.70
2022-09-17T02:16:28.811Z,11.70
2022-09-17T02:19:06.431Z,11.70
2022-09-17T02:21:40.429Z,11.70
2022-09-17T02:24:18.382Z,11.70
2022-09-17T02:26:51.420Z,11.70
2022-09-17T02:29:27.535Z,11.70
2022-09-17T02:31:55.763Z,11.70
2022-09-17T02:34:27.516Z,11.70
2022-09-17T02:36:56.288Z,11.70
2022-09-17T02:39:24.385Z,11.70
2022-09-17T02:42:04.923Z,11.70
2022-09-17T02:44:39.982Z,11.70
2022-09-17T02:47:30.134Z,11.70
2022-09-17T02:50:27.791Z,11.70
2022-09-17T02:53:07.772Z,11.70
2022-09-17T02:55:42.769Z,11.70
2022-09-17T02:58:21.544Z,11.70
2022-09-17T03:00:50.119Z,11.70
2022-09-17T03:03:23.111Z,11.70
2022-09-17T03:05:53.442Z,11.70
2022-09-17T03:08:28.863Z,11.70
2022-09-17T03:10:57.406Z,11.70
2022-09-17T03:13:25.720Z,11.70
2022-09-17T03:15:53.932Z,11.70
2022-09-17T03:18:22.543Z,11.60
2022-09-17T03:20:52.077Z,11.60
2022-09-17T03:23:22.814Z,11.60
2022-09-17T03:25:51.289Z,11.60
2022-09-17T03:28:19.640Z,11.50
2022-09-17T03:30:48.387Z,11.50
2022-09-17T03:33:16.721Z,11.50
2022-09-17T03:35:45.179Z,11.50
2022-09-17T03:38:15.085Z,11.50
2022-09-17T03:40:46.854Z,11.50
2022-09-17T03:43:14.948Z,11.50
2022-09-17T03:45:44.638Z,11.50
2022-09-17T03:48:12.805Z,11.40
2022-09-17T03:50:40.998Z,11.40
2022-09-17T03:53:09.173Z,11.40
2022-09-17T03:55:41.150Z,11.40
2022-09-17T03:58:11.244Z,11.40
2022-09-17T04:00:40.225Z,11.40
2022-09-17T04:03:08.630Z,11.30
2022-09-17T04:05:36.825Z,11.30
2022-09-17T04:08:05.074Z,11.30
2022-09-17T04:10:33.271Z,11.30
2022-09-17T04:13:02.902Z,11.30
2022-09-17T04:15:31.127Z,11.30
2022-09-17T04:17:59.685Z,11.30
2022-09-17T04:20:28.494Z,11.30
2022-09-17T04:22:56.745Z,11.30
2022-09-17T04:25:25.183Z,11.30
2022-09-17T04:27:53.600Z,11.30
2022-09-17T04:30:23.213Z,11.30
2022-09-17T04:32:51.319Z,11.30
2022-09-17T04:35:19.558Z,11.20
2022-09-17T04:37:54.408Z,11.20
2022-09-17T04:40:22.964Z,11.20
2022-09-17T04:42:55.034Z,11.20
2022-09-17T04:45:24.950Z,11.20
2022-09-17T04:47:53.511Z,11.20
2022-09-17T04:50:21.992Z,11.10
2022-09-17T04:52:50.542Z,11.10
2022-09-17T04:55:18.737Z,11.10
2022-09-17T04:57:51.214Z,11.10
2022-09-17T05:00:20.933Z,11.00
2022-09-17T05:02:54.298Z,11.00
2022-09-17T05:05:22.994Z,11.00
2022-09-17T05:07:51.162Z,11.00
2022-09-17T05:10:21.496Z,11.00
2022-09-17T05:12:50.762Z,10.90
2022-09-17T05:15:19.245Z,10.90
2022-09-17T05:17:47.619Z,10.90
2022-09-17T05:20:18.065Z,10.90
2022-09-17T05:22:47.398Z,10.90
2022-09-17T05:25:17.589Z,10.90
2022-09-17T05:27:45.700Z,10.90
2022-09-17T05:30:14.461Z,10.90
2022-09-17T05:32:42.770Z,10.90
2022-09-17T05:35:12.049Z,10.90
2022-09-17T05:37:41.741Z,10.90
2022-09-17T05:40:10.901Z,10.90
2022-09-17T05:42:39.113Z,10.90
2022-09-17T05:45:08.304Z,10.80
2022-09-17T05:47:36.680Z,10.80
2022-09-17T05:50:05.185Z,10.80
2022-09-17T05:52:33.327Z,10.80
2022-09-17T05:55:02.846Z,10.80
2022-09-17T05:57:31.493Z,10.80
2022-09-17T05:59:59.561Z,10.80
2022-09-17T06:02:27.743Z,10.80
2022-09-17T06:04:55.965Z,10.80
2022-09-17T06:07:24.190Z,10.70
2022-09-17T06:09:52.327Z,10.80
2022-09-17T06:12:21.923Z,10.80
2022-09-17T06:14:50.211Z,10.80
2022-09-17T06:17:22.075Z,10.90
2022-09-17T06:19:50.531Z,11.00
2022-09-17T06:22:20.303Z,11.10
2022-09-17T06:24:48.661Z,11.10
2022-09-17T06:27:16.877Z,11.20
2022-09-17T06:29:46.558Z,11.40
2022-09-17T06:32:16.970Z,11.30
2022-09-17T06:34:45.100Z,11.30
2022-09-17T06:37:13.274Z,11.30
2022-09-17T06:39:41.413Z,11.30
2022-09-17T06:42:09.634Z,11.20
2022-09-17T06:44:38.141Z,11.20
2022-09-17T06:47:08.110Z,11.20
2022-09-17T06:49:36.274Z,11.30
2022-09-17T06:52:05.129Z,11.30
2022-09-17T06:54:33.473Z,11.30
2022-09-17T06:57:01.821Z,11.30
2022-09-17T06:59:29.877Z,11.30
2022-09-17T07:01:58.088Z,11.30
2022-09-17T07:04:27.582Z,11.40
2022-09-17T07:06:55.748Z,11.40
2022-09-17T07:09:24.399Z,11.40
2022-09-17T07:11:52.574Z,11.50
2022-09-17T07:14:21.190Z,11.50
2022-09-17T07:16:49.418Z,11.50
2022-09-17T07:19:17.589Z,11.60
2022-09-17T07:21:49.750Z,11.60
2022-09-17T07:24:17.895Z,11.60
2022-09-17T07:26:46.024Z,11.70
2022-09-17T07:29:14.179Z,11.70
2022-09-17T07:31:42.483Z,11.80
2022-09-17T07:34:11.396Z,11.80
2022-09-17T07:36:39.567Z,11.90
2022-09-17T07:39:09.738Z,11.90
2022-09-17T07:41:38.105Z,12.00
2022-09-17T07:44:06.900Z,12.00
2022-09-17T07:46:35.111Z,12.10
2022-09-17T07:49:03.806Z,12.20
2022-09-17T07:51:32.037Z,12.30
2022-09-17T07:54:02.293Z,12.40
2022-09-17T07:56:31.783Z,12.60
2022-09-17T07:59:00.056Z,12.70
2022-09-17T08:01:28.217Z,12.90
2022-09-17T08:03:56.401Z,13.00
2022-09-17T08:06:28.014Z,13.10
2022-09-17T08:08:56.564Z,13.20
2022-09-17T08:11:51.619Z,13.40
2022-09-17T08:14:17.372Z,13.50
2022-09-17T08:16:47.249Z,13.60
2022-09-17T08:19:15.467Z,13.70
2022-09-17T08:21:43.685Z,13.80
2022-09-17T08:24:11.811Z,14.00
2022-09-17T08:26:40.561Z,14.10
2022-09-17T08:29:08.930Z,14.10
2022-09-17T08:31:38.479Z,14.00
2022-09-17T08:34:10.454Z,13.90
2022-09-17T08:36:39.628Z,13.90
2022-09-17T08:39:08.162Z,13.80
2022-09-17T08:41:47.120Z,13.70
2022-09-17T08:44:24.384Z,13.70
2022-09-17T08:46:59.176Z,13.70
2022-09-17T08:49:34.945Z,13.80
2022-09-17T08:52:42.539Z,13.80
2022-09-17T08:55:25.395Z,13.80
2022-09-17T08:58:03.462Z,13.80
2022-09-17T09:00:37.932Z,13.80
2022-09-17T09:03:23.002Z,13.80
2022-09-17T09:05:53.527Z,13.80
2022-09-17T09:08:28.107Z,13.80
2022-09-17T09:11:01.766Z,13.70
2022-09-17T09:13:36.435Z,13.70
2022-09-17T09:16:08.130Z,13.60
2022-09-17T09:18:41.643Z,13.60
2022-09-17T09:21:25.130Z,13.50
2022-09-17T09:23:58.583Z,13.40
2022-09-17T09:26:40.902Z,13.20
2022-09-17T09:29:20.961Z,13.00
2022-09-17T09:32:16.711Z,12.70
2022-09-17T09:34:49.455Z,12.60
2022-09-17T09:37:24.005Z,12.40
2022-09-17T09:39:55.758Z,12.30
2022-09-17T09:42:30.300Z,12.20
2022-09-17T09:45:04.943Z,12.20
2022-09-17T09:47:56.021Z,12.10
2022-09-17T09:51:05.119Z,12.10
2022-09-17T09:53:47.779Z,12.00
2022-09-17T09:56:39.144Z,12.00
2022-09-17T09:59:08.879Z,12.10
2022-09-17T10:01:42.480Z,12.00
2022-09-17T10:04:19.506Z,12.00
2022-09-17T10:06:51.412Z,12.00
2022-09-17T10:09:22.435Z,12.00
2022-09-17T10:12:17.808Z,11.90
2022-09-17T10:14:47.848Z,11.90
2022-09-17T10:17:22.572Z,11.90
2022-09-17T10:20:20.756Z,11.80
2022-09-17T10:22:52.585Z,11.80
2022-09-17T10:25:29.778Z,11.80
2022-09-17T10:27:59.659Z,11.80
2022-09-17T10:30:28.528Z,11.80
2022-09-17T10:33:22.237Z,11.80
2022-09-17T10:36:02.440Z,11.80
2022-09-17T10:38:34.758Z,11.80
2022-09-17T10:41:21.943Z,11.80
2022-09-17T10:43:50.823Z,11.80
2022-09-17T10:46:27.353Z,11.80
2022-09-17T10:49:09.471Z,11.80
2022-09-17T10:51:38.886Z,11.70
2022-09-17T10:54:42.222Z,11.70
2022-09-17T10:57:14.855Z,11.70
2022-09-17T11:00:04.546Z,11.60
2022-09-17T11:03:10.371Z,11.60
2022-09-17T11:06:04.354Z,11.60
2022-09-17T11:08:40.537Z,11.60
2022-09-17T11:11:12.777Z,11.60
2022-09-17T11:13:50.191Z,11.50
2022-09-17T11:16:31.341Z,11.50
2022-09-17T11:19:09.774Z,11.50
2022-09-17T11:21:45.380Z,11.40
2022-09-17T11:24:48.664Z,11.40
2022-09-17T11:27:33.123Z,11.40
2022-09-17T11:30:09.365Z,11.40
2022-09-17T11:33:04.443Z,11.40
2022-09-17T11:35:36.559Z,11.40
2022-09-17T11:38:08.100Z,11.40
2022-09-17T11:40:42.104Z,11.40
2022-09-17T11:43:22.236Z,11.40
2022-09-17T11:46:02.011Z,11.30
2022-09-17T11:48:36.369Z,11.30
2022-09-17T11:51:22.162Z,11.30
2022-09-17T11:53:54.335Z,11.40
2022-09-17T11:56:26.887Z,11.40
2022-09-17T11:59:01.475Z,11.40
2022-09-17T12:01:39.451Z,11.40
2022-09-17T12:04:28.866Z,11.50
2022-09-17T12:07:02.580Z,11.50
2022-09-17T12:09:35.378Z,11.50
2022-09-17T12:12:08.944Z,11.60
2022-09-17T12:14:47.547Z,11.60
2022-09-17T12:17:23.443Z,11.70
2022-09-17T12:19:55.875Z,11.70
2022-09-17T12:22:27.618Z,11.80
2022-09-17T12:24:56.084Z,11.80
2022-09-17T12:27:38.189Z,11.90
2022-09-17T12:30:11.979Z,12.00
2022-09-17T12:33:03.845Z,12.00
2022-09-17T12:36:05.587Z,12.10
2022-09-17T12:39:09.891Z,12.10
2022-09-17T12:41:47.254Z,12.10
2022-09-17T12:44:43.682Z,12.20
2022-09-17T12:47:34.721Z,12.20
2022-09-17T12:50:18.529Z,12.30
2022-09-17T12:52:58.884Z,12.30
2022-09-17T12:55:47.958Z,12.40
2022-09-17T12:58:28.186Z,12.40
2022-09-17T13:01:04.269Z,12.40
2022-09-17T13:03:38.713Z,12.50
2022-09-17T13:06:37.450Z,12.50
2022-09-17T13:09:41.502Z,12.60
2022-09-17T13:12:23.143Z,12.70
2022-09-17T13:15:07.932Z,12.80
2022-09-17T13:17:46.648Z,12.90
2022-09-17T13:20:30.941Z,13.10
2022-09-17T13:23:00.004Z,13.20
2022-09-17T13:25:28.459Z,13.20
2022-09-17T13:28:08.512Z,13.30
2022-09-17T13:30:59.741Z,13.30
2022-09-17T13:33:51.213Z,13.40
2022-09-17T13:36:43.566Z,13.40
2022-09-17T13:39:33.383Z,13.40
2022-09-17T13:42:05.216Z,13.40
2022-09-17T13:44:37.448Z,13.40
2022-09-17T13:47:19.394Z,13.40
2022-09-17T13:49:51.669Z,13.50
2022-09-17T13:52:42.081Z,13.50
2022-09-17T13:55:30.984Z,13.50
2022-09-17T13:57:59.343Z,13.50
2022-09-17T14:00:54.329Z,13.50
2022-09-17T14:03:55.665Z,13.50
2022-09-17T14:06:51.478Z,13.50
2022-09-17T14:09:51.290Z,13.50
2022-09-17T14:12:55.204Z,13.50
2022-09-17T14:15:52.685Z,13.60
2022-09-17T14:18:44.489Z,13.60
2022-09-17T14:21:25.039Z,13.60
2022-09-17T14:23:57.434Z,13.60
2022-09-17T14:26:56.378Z,13.50
2022-09-17T14:29:34.957Z,13.50
2022-09-17T14:32:03.297Z,13.40
2022-09-17T14:34:33.280Z,13.30
2022-09-17T14:37:01.508Z,13.20
2022-09-17T14:39:37.869Z,13.10
2022-09-17T14:42:14.364Z,13.10
2022-09-17T14:44:52.511Z,13.00
2022-09-17T14:47:23.827Z,13.00
2022-09-17T14:49:52.471Z,13.00
2022-09-17T14:52:29.098Z,13.00
2022-09-17T14:55:18.013Z,13.00
2022-09-17T14:57:50.840Z,13.00
2022-09-17T15:00:23.215Z,13.00
2022-09-17T15:02:54.382Z,13.00
2022-09-17T15:05:30.149Z,13.10
2022-09-17T15:08:17.220Z,13.10
2022-09-17T15:10:54.907Z,13.10
2022-09-17T15:13:28.018Z,13.10
2022-09-17T15:16:01.473Z,13.10
2022-09-17T15:18:37.328Z,13.20
2022-09-17T15:21:12.326Z,13.20
2022-09-17T15:23:41.003Z,13.30
2022-09-17T15:26:09.522Z,13.30
2022-09-17T15:28:43.158Z,13.30
2022-09-17T15:31:18.145Z,13.30
2022-09-17T15:33:48.019Z,13.30
2022-09-17T15:36:22.217Z,13.30
2022-09-17T15:38:50.992Z,13.20
2022-09-17T15:41:30.079Z,13.20
2022-09-17T15:44:29.784Z,13.20
2022-09-17T15:47:32.714Z,13.10
2022-09-17T15:50:18.183Z,13.10
2022-09-17T15:52:47.076Z,13.10
2022-09-17T15:55:48.061Z,13.10
2022-09-17T15:58:24.479Z,13.10
2022-09-17T16:01:40.276Z,13.10
2022-09-17T16:04:31.619Z,13.00
2022-09-17T16:07:24.889Z,13.00
2022-09-17T16:09:54.598Z,13.00
2022-09-17T16:12:24.546Z,13.10
2022-09-17T16:14:54.156Z,13.10
2022-09-17T16:17:44.484Z,13.10
2022-09-17T16:20:19.948Z,13.10
2022-09-17T16:22:49.030Z,13.10
2022-09-17T16:25:18.522Z,13.10
2022-09-17T16:27:53.154Z,13.10
2022-09-17T16:30:23.558Z,13.10
2022-09-17T16:32:52.922Z,13.10
2022-09-17T16:35:26.694Z,13.10
2022-09-17T16:37:56.319Z,13.10
2022-09-17T16:40:28.672Z,13.10
2022-09-17T16:42:57.082Z,13.10
2022-09-17T16:45:28.875Z,13.00
2022-09-17T16:47:57.877Z,13.00
2022-09-17T16:50:27.895Z,12.90
2022-09-17T16:52:56.086Z,13.00
2022-09-17T16:55:27.131Z,12.90
2022-09-17T16:57:58.152Z,12.80
2022-09-17T17:00:27.370Z,12.80
2022-09-17T17:02:56.990Z,12.80
2022-09-17T17:05:27.674Z,12.80
2022-09-17T17:07:56.484Z,12.70
2022-09-17T17:10:26.518Z,12.70
2022-09-17T17:12:54.905Z,12.70
2022-09-17T17:15:23.723Z,12.70
2022-09-17T17:17:52.246Z,12.70
2022-09-17T17:20:20.914Z,12.70
2022-09-17T17:22:51.703Z,12.70
2022-09-17T17:25:20.208Z,12.60
2022-09-17T17:27:48.292Z,12.60
2022-09-17T17:30:17.505Z,12.70
2022-09-17T17:32:50.526Z,12.60
2022-09-17T17:35:19.040Z,12.60
2022-09-17T17:37:47.219Z,12.60
2022-09-17T17:40:17.083Z,12.50
2022-09-17T17:42:47.394Z,12.60
2022-09-17T17:45:15.920Z,12.50
2022-09-17T17:47:44.594Z,12.50
2022-09-17T17:50:12.741Z,12.50
2022-09-17T17:52:43.515Z,12.50
2022-09-17T17:55:11.793Z,12.50
2022-09-17T17:57:41.604Z,12.50
2022-09-17T18:00:12.347Z,12.50
2022-09-17T18:02:40.909Z,12.50
2022-09-17T18:05:10.237Z,12.50
2022-09-17T18:07:38.330Z,12.50
2022-09-17T18:10:07.457Z,12.50
2022-09-17T18:12:36.937Z,12.50
2022-09-17T18:15:08.089Z,12.50
2022-09-17T18:17:36.895Z,12.50
2022-09-17T18:20:06.118Z,12.50
2022-09-17T18:22:34.319Z,12.40
2022-09-17T18:25:02.480Z,12.50
2022-09-17T18:27:30.646Z,12.50
2022-09-17T18:29:58.831Z,12.40
2022-09-17T18:32:29.027Z,12.40
2022-09-17T18:34:57.277Z,12.50
2022-09-17T18:37:25.511Z,12.40
2022-09-17T18:39:58.516Z,12.40
2022-09-17T18:42:27.551Z,12.40
2022-09-17T18:44:55.800Z,12.40
2022-09-17T18:47:24.240Z,12.40
2022-09-17T18:49:54.053Z,12.40
2022-09-17T18:52:22.495Z,12.40
2022-09-17T18:54:50.584Z,12.30
2022-09-17T18:57:18.756Z,12.30
2022-09-17T18:59:47.439Z,12.30
2022-09-17T19:02:15.904Z,12.30
2022-09-17T19:04:44.250Z,12.30
2022-09-17T19:07:13.964Z,12.20
2022-09-17T19:09:43.850Z,12.20
2022-09-17T19:12:12.047Z,12.20
2022-09-17T19:14:40.234Z,12.20
2022-09-17T19:17:09.023Z,12.20
2022-09-17T19:19:37.153Z,12.10
2022-09-17T19:22:07.797Z,12.10
2022-09-17T19:24:38.494Z,12.10
2022-09-17T19:27:07.579Z,12.10
2022-09-17T19:29:35.957Z,12.10
2022-09-17T19:32:04.157Z,12.10
2022-09-17T19:34:32.560Z,12.00
2022-09-17T19:37:00.864Z,12.00
2022-09-17T19:39:29.110Z,12.00
2022-09-17T19:41:58.929Z,12.00
2022-09-17T19:44:27.400Z,12.00
2022-09-17T19:46:55.913Z,12.00
2022-09-17T19:49:24.225Z,12.00
2022-09-17T19:51:52.516Z,12.00
2022-09-17T19:54:20.609Z,12.00
2022-09-17T19:56:48.888Z,11.90
2022-09-17T19:59:18.493Z,11.90
2022-09-17T20:01:49.685Z,11.90
2022-09-17T20:04:21.227Z,11.90
2022-09-17T20:06:49.420Z,11.90
2022-09-17T20:09:17.541Z,11.80
2022-09-17T20:11:45.882Z,11.80
2022-09-17T20:14:14.174Z,11.80
2022-09-17T20:16:45.002Z,11.70
2022-09-17T20:19:17.264Z,11.70
2022-09-17T20:21:45.577Z,11.70
2022-09-17T20:24:14.048Z,11.70
2022-09-17T20:26:42.284Z,11.60
2022-09-17T20:29:10.806Z,11.60
2022-09-17T20:31:39.190Z,11.60
2022-09-17T20:34:08.817Z,11.60
2022-09-17T20:36:36.992Z,11.60
2022-09-17T20:39:21.075Z,11.50
2022-09-17T20:41:51.039Z,11.50
2022-09-17T20:44:20.321Z,11.50
2022-09-17T20:46:48.811Z,11.40
2022-09-17T20:49:18.419Z,11.40
2022-09-17T20:51:46.721Z,11.40
2022-09-17T20:54:15.212Z,11.30
2022-09-17T20:56:43.491Z,11.30
2022-09-17T20:59:15.369Z,11.30
2022-09-17T21:01:45.821Z,11.30
2022-09-17T21:04:16.871Z,11.30
2022-09-17T21:06:47.207Z,11.30
2022-09-17T21:09:16.851Z,11.20
2022-09-17T21:11:46.095Z,11.20
2022-09-17T21:14:16.016Z,11.20
2022-09-17T21:16:44.935Z,11.20
2022-09-17T21:19:16.256Z,11.10
2022-09-17T21:21:46.215Z,11.10
2022-09-17T21:24:14.802Z,11.10
2022-09-17T21:26:45.191Z,11.10
2022-09-17T21:29:13.955Z,11.10
2022-09-17T21:31:42.683Z,11.10
2022-09-17T21:34:13.591Z,11.00
2022-09-17T21:36:44.503Z,11.00
2022-09-17T21:39:15.537Z,10.90
2022-09-17T21:41:44.332Z,10.90
2022-09-17T21:44:13.329Z,10.90
2022-09-17T21:46:42.581Z,10.90
2022-09-17T21:49:13.332Z,10.90
2022-09-17T21:51:43.154Z,10.90
2022-09-17T21:54:15.978Z,10.90
2022-09-17T21:56:44.922Z,10.90
2022-09-17T21:59:15.275Z,10.90
2022-09-17T22:01:46.714Z,10.90
2022-09-17T22:04:17.539Z,10.90
2022-09-17T22:06:47.257Z,10.80
2022-09-17T22:09:18.872Z,10.80
2022-09-17T22:11:47.813Z,10.80
2022-09-17T22:14:19.285Z,10.80
2022-09-17T22:16:49.247Z,10.80
2022-09-17T22:19:18.878Z,10.80
2022-09-17T22:21:48.943Z,10.80
2022-09-17T22:24:20.135Z,10.80
2022-09-17T22:26:55.740Z,10.80
2022-09-17T22:29:26.427Z,10.80
2022-09-17T22:31:54.566Z,10.80
2022-09-17T22:34:25.946Z,10.80
2022-09-17T22:36:54.299Z,10.90
2022-09-17T22:39:24.133Z,10.80
2022-09-17T22:41:52.448Z,10.80
2022-09-17T22:44:21.869Z,10.80
2022-09-17T22:46:51.643Z,10.80
2022-09-17T22:49:20.648Z,10.80
2022-09-17T22:51:52.209Z,10.80
2022-09-17T22:54:20.672Z,10.90
2022-09-17T22:56:50.855Z,10.90
2022-09-17T22:59:19.563Z,10.90
2022-09-17T23:01:47.973Z,10.90
2022-09-17T23:04:16.460Z,10.80
2022-09-17T23:06:44.691Z,10.90
2022-09-17T23:09:14.093Z,10.90
2022-09-17T23:11:42.550Z,10.90
2022-09-17T23:14:14.743Z,10.80
2022-09-17T23:16:45.731Z,10.90
2022-09-17T23:19:15.476Z,10.90
2022-09-17T23:21:44.082Z,10.90
2022-09-17T23:24:18.027Z,10.90
2022-09-17T23:26:46.389Z,10.90
2022-09-17T23:29:16.366Z,10.90
2022-09-17T23:31:44.713Z,10.90
2022-09-17T23:34:12.943Z,10.90
2022-09-17T23:36:41.287Z,10.90
2022-09-17T23:39:11.913Z,10.90
2022-09-17T23:41:43.277Z,10.90
2022-09-17T23:44:15.652Z,10.90
2022-09-17T23:46:46.849Z,10.90
2022-09-17T23:49:15.762Z,10.90
2022-09-17T23:51:47.390Z,10.90
2022-09-17T23:54:15.811Z,10.90
2022-09-17T23:56:44.323Z,10.90
2022-09-17T23:59:12.732Z,10.80
